KSKA/SKA METAR and TAF weather

Enter ICAO airport designator
Station Type Date Time Source
KSKA METAR 2021/09/27 05:58 UTC NOAA

KSKA 270558Z 15005KT 10SM BKN180 14/M04 A2977 RMK AO2A SLP073 T01371036 10247 20137 50005 $


Station Type Date Time Source
KSKA Decoded METAR 2021/09/27 05:58 UTC NOAA

Fairchild Air Force Base, WA, United States (KSKA) 47-37N 117-39W
Sep 27, 2021 - 01:58 AM EDT / 2021.09.27 0558 UTC
Wind: from the SSE (150 degrees) at 6 MPH (5 KT):0
Visibility: 10 mile(s):0
Sky conditions: mostly cloudy
Temperature: 56.7 F (13.7 C)
Dew Point: 25.5 F (-3.6 C)
Relative Humidity: 29%
Pressure (altimeter): 29.77 in. Hg (1008 hPa)
Pressure tendency: 0.01 inches (0.5 hPa) higher than three hours ago
ob: KSKA 270558Z 15005KT 10SM BKN180 14/M04 A2977 RMK AO2A SLP073 T01371036 10247 20137 50005
cycle: 6

Station Type Date Time Source
KSKA TAF 2021/09/27 03:57 UTC NOAA

TAF TAF KSKA 270300Z 2703/2809 15008KT 9999 BKN160 QNH2975INS
BECMG 2712/2713 19010KT 9999 VCSH BKN080 OVC100 QNH2981INS
BECMG 2716/2718 21020G30KT 9999 VCSH BKN080 OVC100 QNH2970INS
TEMPO 2718/2801 22025G35KT -SHRA
BECMG 2801/2803 30012KT 9999 -RA BKN015 OVC030 620409 QNH2978INS TX20/2723Z TN13/2712Z

Example: see airport list